Time;durP1;ratioP1;P1;durP2;ratioP2;P2;SDS_P1;SDS_P2;PMS_P1;PMS_P2;Temp;Humidity;BMP_temperature;BMP_pressure;BME280_temperature;BME280_humidity;BME280_pressure;Samples;Min_cycle;Max_cycle;Signal;HPM_P1;HPM_P2
2021/05/26 00:01:25;;;;;;;2.22;0.90;;;14.90;99.90;;;;;;5012153;28;20459;-70
2021/05/26 00:03:51;;;;;;;0.60;0.60;;;14.90;99.90;;;;;;5013473;28;20030;-70
2021/05/26 00:06:18;;;;;;;0.82;0.68;;;14.80;99.90;;;;;;5013396;28;20026;-71
2021/05/26 00:08:44;;;;;;;0.85;0.80;;;14.80;99.90;;;;;;4995631;28;20041;-71
2021/05/26 00:11:13;;;;;;;2.17;0.90;;;14.80;99.90;;;;;;5011783;28;20080;-72
2021/05/26 00:13:40;;;;;;;5.82;1.00;;;14.70;99.90;;;;;;5013327;28;20124;-72
2021/05/26 00:16:06;;;;;;;1.10;1.00;;;14.70;99.90;;;;;;4995419;28;20050;-71
2021/05/26 00:18:33;;;;;;;1.52;0.80;;;14.70;99.90;;;;;;5011928;28;20585;-72
2021/05/26 00:21:00;;;;;;;1.45;0.80;;;14.70;99.90;;;;;;5013239;28;20088;-69
2021/05/26 00:23:26;;;;;;;0.70;0.70;;;14.60;99.90;;;;;;5012992;28;20368;-68
2021/05/26 00:25:52;;;;;;;1.27;0.60;;;14.50;99.90;;;;;;5013184;28;20030;-68
2021/05/26 00:28:18;;;;;;;0.80;0.80;;;14.50;99.90;;;;;;5013161;28;20388;-68
2021/05/26 00:30:50;;;;;;;1.92;0.75;;;14.50;99.90;;;;;;5011885;28;20386;-70
2021/05/26 00:33:17;;;;;;;1.20;0.90;;;14.40;99.90;;;;;;4995462;28;20395;-68
2021/05/26 00:35:43;;;;;;;1.30;0.65;;;14.40;99.90;;;;;;5013191;28;20034;-70
2021/05/26 00:38:09;;;;;;;1.25;0.55;;;14.30;99.90;;;;;;5012818;28;20037;-69
2021/05/26 00:40:36;;;;;;;0.70;0.70;;;14.30;99.90;;;;;;5013344;28;20111;-69
2021/05/26 00:43:02;;;;;;;1.45;0.80;;;14.20;99.90;;;;;;4995373;28;20097;-72
2021/05/26 00:45:28;;;;;;;1.63;0.90;;;14.20;99.90;;;;;;4995379;28;20116;-71
2021/05/26 00:47:54;;;;;;;1.10;0.70;;;14.10;99.90;;;;;;4995146;28;20028;-71
2021/05/26 00:50:22;;;;;;;1.75;0.70;;;14.00;99.90;;;;;;5012998;28;20104;-71
2021/05/26 00:52:49;;;;;;;0.75;0.70;;;14.00;99.90;;;;;;5012897;28;20036;-69
2021/05/26 00:55:20;;;;;;;1.30;0.80;;;14.00;99.90;;;;;;4995412;28;20050;-71
2021/05/26 00:57:50;;;;;;;0.73;0.73;;;13.90;99.90;;;;;;4995378;28;20124;-69
2021/05/26 01:00:19;;;;;;;0.75;0.70;;;13.90;99.90;;;;;;5012890;28;20058;-70
2021/05/26 01:02:50;;;;;;;2.00;0.75;;;13.90;99.90;;;;;;5012937;28;20026;-70
2021/05/26 01:05:18;;;;;;;0.80;0.80;;;13.90;99.90;;;;;;4995281;28;20450;-72
2021/05/26 01:07:44;;;;;;;4.57;1.42;;;14.00;99.90;;;;;;5012790;28;20256;-70
2021/05/26 01:10:12;;;;;;;6.80;2.05;;;14.00;99.90;;;;;;5012783;28;20382;-71
2021/05/26 01:12:38;;;;;;;1.45;1.00;;;14.00;99.90;;;;;;5012743;28;20041;-71
2021/05/26 01:15:09;;;;;;;2.60;1.00;;;14.00;99.90;;;;;;5012627;28;20026;-70
2021/05/26 01:17:35;;;;;;;7.82;1.05;;;13.90;99.90;;;;;;5012840;28;20391;-72
2021/05/26 01:20:06;;;;;;;3.45;1.23;;;14.00;99.90;;;;;;5012702;28;20062;-72
2021/05/26 01:22:32;;;;;;;2.95;1.10;;;14.00;99.90;;;;;;5015356;28;20038;-74
2021/05/26 01:24:58;;;;;;;1.65;0.77;;;14.00;99.90;;;;;;4998659;28;20087;-70
2021/05/26 01:27:24;;;;;;;1.38;0.85;;;13.90;99.90;;;;;;5016154;28;20038;-72
2021/05/26 01:29:51;;;;;;;1.45;0.73;;;13.80;99.90;;;;;;5016171;28;20026;-71
2021/05/26 01:32:17;;;;;;;4.57;0.70;;;13.80;99.90;;;;;;4998418;28;20061;-72
2021/05/26 01:34:43;;;;;;;0.60;0.60;;;13.70;99.90;;;;;;4998418;28;20034;-72
2021/05/26 01:37:09;;;;;;;0.63;0.52;;;13.70;99.90;;;;;;5016030;28;20034;-73
2021/05/26 01:39:35;;;;;;;3.17;0.70;;;13.70;99.90;;;;;;5016179;28;20030;-71
2021/05/26 01:42:01;;;;;;;0.70;0.70;;;13.80;99.90;;;;;;5015907;28;20080;-70
2021/05/26 01:44:33;;;;;;;1.17;0.70;;;13.80;99.90;;;;;;5015899;28;20026;-74
2021/05/26 01:46:59;;;;;;;1.50;0.98;;;13.80;99.90;;;;;;5015575;28;20145;-70
2021/05/26 01:49:25;;;;;;;1.10;1.00;;;13.70;99.90;;;;;;5016061;28;20034;-70
2021/05/26 01:51:50;;;;;;;2.58;0.80;;;13.70;99.90;;;;;;4998094;28;20029;-71
2021/05/26 01:54:16;;;;;;;3.22;0.90;;;13.70;99.90;;;;;;5015668;28;20025;-71
2021/05/26 01:56:42;;;;;;;2.58;1.10;;;13.60;99.90;;;;;;5015673;28;20029;-73
2021/05/26 01:59:08;;;;;;;1.08;0.95;;;13.60;99.90;;;;;;5015557;28;20032;-72
2021/05/26 02:01:34;;;;;;;2.40;0.80;;;13.70;99.90;;;;;;5015577;28;20030;-72
2021/05/26 02:04:01;;;;;;;4.38;1.00;;;13.60;99.90;;;;;;5015763;28;20091;-71
2021/05/26 02:06:27;;;;;;;1.75;1.17;;;13.50;99.90;;;;;;5014124;28;20057;-74
2021/05/26 02:08:55;;;;;;;1.40;1.10;;;13.50;99.90;;;;;;4997809;28;20068;-75
2021/05/26 02:14:08;;;;;;;1.10;1.00;;;13.70;99.90;;;;;;5015067;28;20040;-73
2021/05/26 02:16:36;;;;;;;2.30;1.10;;;13.70;99.90;;;;;;4997420;28;20104;-73
2021/05/26 02:19:03;;;;;;;2.65;0.90;;;13.80;99.90;;;;;;5015275;28;20038;-72
2021/05/26 02:21:29;;;;;;;2.15;1.13;;;13.70;99.90;;;;;;5015222;28;20025;-73
2021/05/26 02:23:54;;;;;;;2.53;0.75;;;13.70;99.90;;;;;;5015121;28;20088;-70
2021/05/26 02:26:21;;;;;;;3.05;1.30;;;13.80;99.90;;;;;;5013800;28;20531;-72
2021/05/26 02:28:46;;;;;;;4.00;1.20;;;13.80;99.90;;;;;;5014684;28;20069;-73
2021/05/26 02:31:12;;;;;;;3.47;1.23;;;13.80;99.90;;;;;;5014972;28;20058;-71
2021/05/26 02:33:38;;;;;;;2.65;1.00;;;13.80;99.90;;;;;;5014625;28;20121;-71
2021/05/26 02:36:05;;;;;;;1.40;0.85;;;13.70;99.90;;;;;;5014993;28;20424;-72
2021/05/26 02:38:32;;;;;;;2.05;1.13;;;13.70;99.90;;;;;;5014861;28;20022;-72
2021/05/26 02:40:58;;;;;;;1.80;0.63;;;13.70;99.90;;;;;;4997262;28;20033;-71
2021/05/26 02:43:25;;;;;;;1.25;1.20;;;13.60;99.90;;;;;;5014961;28;20029;-70
2021/05/26 02:45:51;;;;;;;1.98;1.20;;;13.50;99.90;;;;;;5014790;28;20099;-73
2021/05/26 02:48:18;;;;;;;5.28;1.13;;;13.40;99.90;;;;;;4997106;28;20026;-71
2021/05/26 02:50:44;;;;;;;1.88;1.02;;;13.40;99.90;;;;;;4996974;28;20116;-69
2021/05/26 02:53:10;;;;;;;3.42;1.02;;;13.40;99.90;;;;;;4996841;28;20116;-70
2021/05/26 02:55:35;;;;;;;2.47;1.17;;;13.40;99.90;;;;;;5014577;28;20506;-69
2021/05/26 02:58:01;;;;;;;2.03;1.15;;;13.40;99.90;;;;;;5013130;28;20108;-71
2021/05/26 03:00:28;;;;;;;4.93;1.83;;;13.30;99.90;;;;;;4996567;28;20030;-67
2021/05/26 03:02:54;;;;;;;4.43;1.85;;;13.20;99.90;;;;;;5014448;28;20034;-71
2021/05/26 03:05:20;;;;;;;2.33;1.48;;;13.20;99.90;;;;;;5014394;28;20057;-71
2021/05/26 03:07:47;;;;;;;2.70;1.17;;;13.30;99.90;;;;;;5014356;28;20034;-70
2021/05/26 03:10:15;;;;;;;3.13;1.10;;;13.30;99.90;;;;;;4996640;28;20032;-70
2021/05/26 03:12:42;;;;;;;1.90;1.40;;;13.30;99.90;;;;;;5014190;28;20038;-72
2021/05/26 03:15:11;;;;;;;3.20;1.58;;;13.30;99.90;;;;;;5014012;28;20461;-72
2021/05/26 03:17:36;;;;;;;2.38;1.30;;;13.20;99.90;;;;;;4997553;28;20821;-69
2021/05/26 03:20:11;;;;;;;2.17;1.55;;;13.10;99.90;;;;;;5012875;28;20030;-70
2021/05/26 03:22:37;;;;;;;3.42;1.80;;;13.10;99.90;;;;;;5014101;28;20466;-72
2021/05/26 03:25:05;;;;;;;6.00;2.00;;;13.20;99.90;;;;;;4996713;28;20033;-71
2021/05/26 03:27:35;;;;;;;3.35;1.33;;;13.10;99.90;;;;;;5013997;28;20026;-72
2021/05/26 03:30:08;;;;;;;2.13;1.33;;;13.10;99.90;;;;;;5013954;28;20026;-71
2021/05/26 03:32:34;;;;;;;1.65;1.52;;;13.10;99.90;;;;;;5013877;28;20074;-70
2021/05/26 03:35:00;;;;;;;1.92;1.13;;;13.10;99.90;;;;;;5013946;28;20091;-70
2021/05/26 03:37:27;;;;;;;2.40;1.17;;;13.00;99.90;;;;;;5012519;28;20030;-71
2021/05/26 03:39:53;;;;;;;3.70;1.60;;;13.00;99.90;;;;;;5013843;28;20057;-72
2021/05/26 03:42:19;;;;;;;2.58;1.05;;;13.00;99.90;;;;;;5013731;28;20040;-71
2021/05/26 03:44:45;;;;;;;1.50;1.08;;;13.00;99.90;;;;;;4995525;28;20026;-71
2021/05/26 03:47:11;;;;;;;6.85;1.23;;;13.00;99.90;;;;;;5012403;28;20463;-72
2021/05/26 03:49:37;;;;;;;1.58;1.40;;;13.00;99.90;;;;;;5013563;28;20033;-70
2021/05/26 03:52:03;;;;;;;1.58;1.35;;;13.00;99.90;;;;;;5013349;28;20168;-71
2021/05/26 03:54:28;;;;;;;3.70;1.10;;;13.00;99.90;;;;;;5012275;28;20030;-69
2021/05/26 03:56:54;;;;;;;2.05;1.27;;;13.00;99.90;;;;;;5013554;28;20058;-68
2021/05/26 03:59:20;;;;;;;2.00;1.40;;;13.00;99.90;;;;;;5013760;28;20112;-68
2021/05/26 04:01:46;;;;;;;4.75;1.35;;;13.00;99.90;;;;;;5013485;28;20111;-70
2021/05/26 04:04:12;;;;;;;11.05;1.90;;;13.00;99.90;;;;;;4995830;28;20081;-71
2021/05/26 04:06:38;;;;;;;2.50;1.75;;;13.00;99.90;;;;;;5013463;28;20026;-70
2021/05/26 04:09:04;;;;;;;5.55;1.35;;;13.10;99.90;;;;;;5013087;28;20172;-72
2021/05/26 04:11:30;;;;;;;7.15;1.55;;;13.10;99.90;;;;;;4995350;28;20104;-69
2021/05/26 04:13:56;;;;;;;1.13;1.10;;;13.10;99.90;;;;;;5013228;28;20038;-71
2021/05/26 04:16:22;;;;;;;2.33;1.40;;;13.20;99.90;;;;;;5012904;28;20064;-70
2021/05/26 04:18:48;;;;;;;2.58;2.05;;;13.20;99.90;;;;;;5013017;28;20018;-70
2021/05/26 04:21:14;;;;;;;7.72;1.30;;;13.20;99.90;;;;;;5011913;28;20517;-69
2021/05/26 04:23:41;;;;;;;1.10;1.00;;;13.30;99.90;;;;;;5013251;28;20076;-70
2021/05/26 04:26:06;;;;;;;1.52;1.30;;;13.30;99.90;;;;;;5013472;28;20070;-73
2021/05/26 04:28:32;;;;;;;2.03;1.77;;;13.40;99.90;;;;;;5011862;28;20057;-74
2021/05/26 04:30:58;;;;;;;5.07;1.67;;;13.40;99.90;;;;;;5013138;28;20109;-71
2021/05/26 04:33:24;;;;;;;4.72;1.40;;;13.40;99.90;;;;;;5013026;28;20034;-69
2021/05/26 04:35:50;;;;;;;4.20;1.60;;;13.50;99.90;;;;;;5012793;28;20560;-71
2021/05/26 04:38:16;;;;;;;2.05;1.15;;;13.50;99.90;;;;;;5013060;28;20105;-71
2021/05/26 04:40:42;;;;;;;1.42;1.33;;;13.60;99.90;;;;;;5013110;28;20033;-72
2021/05/26 04:43:08;;;;;;;0.95;0.95;;;13.60;99.90;;;;;;5013320;28;20030;-69
2021/05/26 04:45:34;;;;;;;1.25;0.93;;;13.70;99.90;;;;;;5013087;28;20153;-72
2021/05/26 04:48:00;;;;;;;0.85;0.85;;;13.80;99.90;;;;;;5013005;28;20026;-69
2021/05/26 04:50:26;;;;;;;1.67;0.93;;;13.80;99.90;;;;;;5012956;28;20105;-70
2021/05/26 04:52:52;;;;;;;10.80;1.10;;;13.90;99.90;;;;;;5011602;28;20129;-70
2021/05/26 04:55:18;;;;;;;2.83;1.15;;;13.90;99.90;;;;;;5012924;28;20065;-70
2021/05/26 04:57:45;;;;;;;4.88;1.13;;;14.00;99.90;;;;;;5014230;28;20635;-71
2021/05/26 05:00:12;;;;;;;2.22;0.63;;;14.00;99.90;;;;;;5016758;28;20080;-73
2021/05/26 05:02:38;;;;;;;1.13;1.00;;;14.00;99.90;;;;;;4998974;28;20453;-70
2021/05/26 05:05:04;;;;;;;1.02;0.88;;;14.10;99.80;;;;;;5015374;28;20072;-70
2021/05/26 05:07:30;;;;;;;0.80;0.80;;;14.10;99.80;;;;;;4998955;28;20057;-69
2021/05/26 05:09:55;;;;;;;1.25;0.90;;;14.20;99.20;;;;;;5016268;28;20058;-72
2021/05/26 05:12:21;;;;;;;1.80;1.25;;;14.30;99.50;;;;;;5016096;28;20034;-71
2021/05/26 05:14:47;;;;;;;0.65;0.65;;;14.30;99.90;;;;;;5016659;28;20426;-71
2021/05/26 05:17:13;;;;;;;1.35;0.60;;;14.40;98.40;;;;;;5015869;28;20054;-70
2021/05/26 05:19:39;;;;;;;1.10;0.90;;;14.40;97.40;;;;;;5016290;28;20029;-72
2021/05/26 05:22:05;;;;;;;2.47;0.90;;;14.40;98.10;;;;;;5016232;28;20026;-70
2021/05/26 05:24:31;;;;;;;1.05;0.80;;;14.40;97.10;;;;;;5016504;28;20087;-71
2021/05/26 05:26:56;;;;;;;1.70;0.90;;;14.50;97.20;;;;;;5016179;28;20038;-69
2021/05/26 05:29:22;;;;;;;1.48;0.88;;;14.50;96.80;;;;;;5014554;28;20026;-70
2021/05/26 05:31:48;;;;;;;1.45;0.50;;;14.60;97.10;;;;;;5014688;28;20030;-72
2021/05/26 05:34:14;;;;;;;0.65;0.55;;;14.70;96.90;;;;;;5015876;28;20487;-71
2021/05/26 05:36:39;;;;;;;0.68;0.68;;;14.70;97.50;;;;;;5014470;28;20030;-70
2021/05/26 05:39:05;;;;;;;0.50;0.50;;;14.80;97.30;;;;;;5016148;28;20022;-67
2021/05/26 05:41:31;;;;;;;3.35;0.80;;;14.90;97.20;;;;;;5015599;28;20025;-69
2021/05/26 05:43:57;;;;;;;1.40;0.65;;;15.00;97.60;;;;;;5015795;28;20037;-69
2021/05/26 05:46:23;;;;;;;4.70;0.82;;;15.00;96.10;;;;;;5015845;28;20034;-73
2021/05/26 05:48:49;;;;;;;1.25;0.70;;;15.00;96.50;;;;;;5015658;28;20557;-69
2021/05/26 05:51:14;;;;;;;4.25;1.00;;;15.10;95.90;;;;;;5016540;28;20106;-71
2021/05/26 05:53:40;;;;;;;3.85;1.17;;;15.10;95.90;;;;;;5015685;28;20037;-71
2021/05/26 05:56:09;;;;;;;2.78;0.70;;;15.10;95.40;;;;;;4998052;28;20112;-69
2021/05/26 05:58:35;;;;;;;1.50;1.10;;;15.20;95.70;;;;;;5015162;28;20368;-70
2021/05/26 06:01:02;;;;;;;2.13;0.60;;;15.30;96.40;;;;;;4997761;28;20033;-69
2021/05/26 06:03:28;;;;;;;0.63;0.60;;;15.30;95.80;;;;;;5014010;28;20073;-73
2021/05/26 06:05:54;;;;;;;1.38;0.57;;;15.30;95.70;;;;;;5014011;28;20033;-70
2021/05/26 06:08:20;;;;;;;8.75;1.38;;;15.40;95.90;;;;;;5014729;28;20352;-72
2021/05/26 06:10:46;;;;;;;1.67;0.65;;;15.50;96.40;;;;;;4997596;28;20033;-70
2021/05/26 06:13:11;;;;;;;0.85;0.70;;;15.50;96.00;;;;;;5015016;28;20034;-70
2021/05/26 06:15:37;;;;;;;1.45;0.63;;;15.60;94.70;;;;;;5013528;28;20050;-73
2021/05/26 06:18:04;;;;;;;0.82;0.63;;;15.70;93.60;;;;;;5015250;28;20419;-69
2021/05/26 06:20:30;;;;;;;0.93;0.80;;;15.80;93.80;;;;;;4997498;28;20046;-71
2021/05/26 06:22:56;;;;;;;1.13;0.60;;;15.80;94.00;;;;;;5013716;28;20237;-71
2021/05/26 06:25:21;;;;;;;3.03;0.85;;;15.80;93.70;;;;;;5014626;28;20433;-69
2021/05/26 06:27:47;;;;;;;3.60;0.60;;;15.70;92.60;;;;;;5014702;28;20101;-71
2021/05/26 06:30:14;;;;;;;0.68;0.68;;;15.80;93.30;;;;;;5014593;28;20026;-69
2021/05/26 06:32:40;;;;;;;3.83;0.60;;;15.80;94.10;;;;;;5014775;28;20034;-69
2021/05/26 06:35:06;;;;;;;2.72;0.55;;;16.00;93.10;;;;;;5014703;28;20030;-69
2021/05/26 06:37:32;;;;;;;4.28;0.88;;;16.10;93.50;;;;;;5014865;28;20089;-69
2021/05/26 06:39:58;;;;;;;1.42;0.70;;;16.10;92.40;;;;;;5014706;28;20057;-72
2021/05/26 06:42:24;;;;;;;0.82;0.60;;;16.30;94.30;;;;;;4997002;28;20040;-70
2021/05/26 06:44:50;;;;;;;2.63;0.70;;;16.40;94.00;;;;;;5014624;28;20037;-73
2021/05/26 06:47:16;;;;;;;1.35;0.65;;;16.50;92.50;;;;;;5014660;28;20034;-70
2021/05/26 06:49:41;;;;;;;1.75;0.80;;;16.50;91.80;;;;;;5013286;28;20429;-71
2021/05/26 06:52:07;;;;;;;2.13;0.93;;;16.50;91.60;;;;;;5013044;28;20076;-73
2021/05/26 06:55:05;;;;;;;0.85;0.73;;;16.60;92.20;;;;;;5012517;28;20379;-71
2021/05/26 06:57:31;;;;;;;0.60;0.60;;;16.40;91.40;;;;;;5032803;28;20025;-73
2021/05/26 06:59:56;;;;;;;0.52;0.50;;;16.60;91.70;;;;;;5033201;28;20379;-73
2021/05/26 07:02:22;;;;;;;0.65;0.52;;;16.60;90.60;;;;;;5033120;28;20041;-75
2021/05/26 07:04:48;;;;;;;3.20;0.63;;;16.80;92.00;;;;;;5033220;28;20470;-73
2021/05/26 07:07:14;;;;;;;1.00;0.52;;;17.00;92.70;;;;;;5033992;28;20025;-73
2021/05/26 07:09:40;;;;;;;0.60;0.60;;;17.00;91.00;;;;;;5032810;28;20390;-75
2021/05/26 07:12:06;;;;;;;1.77;0.50;;;17.10;90.40;;;;;;5032287;28;20458;-75
2021/05/26 07:14:32;;;;;;;2.63;0.60;;;17.20;88.10;;;;;;5028858;28;20048;-73
2021/05/26 07:16:58;;;;;;;0.50;0.50;;;17.40;90.60;;;;;;5032880;28;20045;-73
2021/05/26 07:19:24;;;;;;;1.45;0.52;;;17.40;82.80;;;;;;5033125;28;20112;-73
2021/05/26 07:21:49;;;;;;;0.75;0.52;;;17.40;81.30;;;;;;5033915;28;20033;-73
2021/05/26 07:24:15;;;;;;;0.50;0.50;;;17.30;79.70;;;;;;5015726;28;20120;-73
2021/05/26 07:26:41;;;;;;;0.90;0.80;;;17.50;81.00;;;;;;5015857;28;20032;-75
2021/05/26 07:29:09;;;;;;;0.65;0.60;;;17.50;78.90;;;;;;5033187;28;20103;-74
2021/05/26 07:31:34;;;;;;;1.75;0.63;;;17.70;80.40;;;;;;5033492;28;20029;-73
2021/05/26 07:34:00;;;;;;;1.23;0.50;;;17.90;83.00;;;;;;5033423;28;20040;-71
2021/05/26 07:36:26;;;;;;;0.90;0.60;;;18.10;82.40;;;;;;5015941;28;20030;-72
2021/05/26 07:38:53;;;;;;;1.63;0.50;;;18.30;79.00;;;;;;5033338;28;20021;-72
2021/05/26 07:41:18;;;;;;;2.00;0.60;;;18.30;78.40;;;;;;5015508;28;20116;-73
2021/05/26 07:43:44;;;;;;;2.20;0.68;;;18.50;77.90;;;;;;5033886;28;20065;-71
2021/05/26 07:46:11;;;;;;;2.75;0.50;;;18.70;78.40;;;;;;5015313;28;20029;-72
2021/05/26 07:48:37;;;;;;;1.50;0.60;;;18.80;77.70;;;;;;5033235;28;20029;-72
2021/05/26 07:51:04;;;;;;;1.73;0.60;;;19.00;75.20;;;;;;5032862;28;20030;-72
2021/05/26 07:53:30;;;;;;;0.55;0.38;;;19.00;74.60;;;;;;5032976;28;20022;-73
2021/05/26 07:55:56;;;;;;;0.75;0.73;;;19.10;75.20;;;;;;5015077;28;20060;-74
2021/05/26 07:58:22;;;;;;;0.80;0.50;;;19.20;76.70;;;;;;5033158;28;20032;-72
2021/05/26 08:00:48;;;;;;;0.43;0.38;;;19.30;75.80;;;;;;5015365;28;20399;-70
2021/05/26 08:03:14;;;;;;;1.80;0.73;;;19.40;78.30;;;;;;5032756;28;20041;-73
2021/05/26 08:05:40;;;;;;;0.80;0.80;;;19.60;77.50;;;;;;5024718;28;20030;-72
2021/05/26 08:08:05;;;;;;;2.22;0.60;;;19.70;77.10;;;;;;5032539;28;20029;-72
2021/05/26 08:10:31;;;;;;;2.28;0.55;;;19.80;77.70;;;;;;5032833;28;20056;-72
2021/05/26 08:12:57;;;;;;;0.40;0.40;;;19.80;72.70;;;;;;5032505;28;20052;-71
2021/05/26 08:15:23;;;;;;;1.60;0.47;;;19.70;68.00;;;;;;5031315;28;20038;-71
2021/05/26 08:17:49;;;;;;;0.40;0.40;;;19.60;65.60;;;;;;5031500;28;20120;-72
2021/05/26 08:20:15;;;;;;;0.50;0.50;;;19.80;70.80;;;;;;5033050;28;20100;-71
2021/05/26 08:22:41;;;;;;;1.85;0.45;;;19.80;64.30;;;;;;5027984;28;20123;-72
2021/05/26 08:25:08;;;;;;;0.75;0.40;;;20.00;65.50;;;;;;5031028;28;20102;-73
2021/05/26 08:27:33;;;;;;;0.40;0.40;;;20.10;60.60;;;;;;5013250;28;20057;-71
2021/05/26 08:30:00;;;;;;;1.33;0.35;;;20.10;60.30;;;;;;5014810;28;20065;-72
2021/05/26 08:32:26;;;;;;;0.38;0.22;;;19.90;58.50;;;;;;5019457;28;20137;-73
2021/05/26 08:34:55;;;;;;;0.20;0.20;;;20.10;57.80;;;;;;5018821;28;20514;-73
2021/05/26 08:37:21;;;;;;;0.43;0.43;;;20.10;58.00;;;;;;5036537;28;20021;-73
2021/05/26 08:39:47;;;;;;;0.82;0.50;;;20.30;55.60;;;;;;5018617;28;20451;-74
2021/05/26 08:42:16;;;;;;;0.30;0.30;;;20.40;60.70;;;;;;5018725;28;20025;-73
2021/05/26 08:44:42;;;;;;;0.55;0.40;;;20.50;57.50;;;;;;5018636;28;20120;-73
2021/05/26 08:47:15;;;;;;;0.40;0.40;;;20.60;60.00;;;;;;5036474;28;20063;-75
2021/05/26 08:49:46;;;;;;;0.70;0.40;;;20.80;63.60;;;;;;5034303;28;20025;-73
2021/05/26 08:52:17;;;;;;;2.63;0.63;;;20.70;55.10;;;;;;5035019;28;20068;-75
2021/05/26 08:54:46;;;;;;;0.30;0.30;;;20.90;57.60;;;;;;5036387;28;20437;-74
2021/05/26 08:57:13;;;;;;;2.63;0.40;;;20.90;58.20;;;;;;5036269;28;20028;-72
2021/05/26 08:59:39;;;;;;;13.68;1.65;;;20.90;54.00;;;;;;5036187;28;20344;-71
2021/05/26 09:02:09;;;;;;;0.70;0.28;;;21.10;58.10;;;;;;5034765;28;20112;-73
2021/05/26 09:04:37;;;;;;;1.90;0.38;;;21.30;53.80;;;;;;5033344;28;20056;-70
2021/05/26 09:07:26;;;;;;;1.75;0.75;;;21.30;56.90;;;;;;5033490;28;20458;-73
2021/05/26 09:10:00;;;;;;;2.88;0.40;;;21.40;55.60;;;;;;5036219;28;20056;-74
2021/05/26 09:12:41;;;;;;;1.17;0.40;;;21.70;61.30;;;;;;5036102;28;20040;-72
2021/05/26 09:15:27;;;;;;;;;;;21.90;59.80;;;;;;5036370;28;20030;-72
2021/05/26 09:17:57;;;;;;;0.30;0.30;;;22.10;58.30;;;;;;5035338;28;19951;-71
2021/05/26 09:20:28;;;;;;;1.85;0.30;;;22.00;56.40;;;;;;5034232;28;20021;-73
2021/05/26 09:23:25;;;;;;;0.30;0.30;;;22.10;56.80;;;;;;5034731;28;20041;-71
2021/05/26 09:25:54;;;;;;;1.00;0.47;;;22.20;56.80;;;;;;5027388;28;20116;-70
2021/05/26 09:28:21;;;;;;;0.45;0.40;;;22.40;54.80;;;;;;5034738;28;20029;-71
2021/05/26 09:30:58;;;;;;;2.22;0.60;;;22.20;55.60;;;;;;5034486;28;20057;-72
2021/05/26 09:33:47;;;;;;;0.50;0.50;;;22.50;56.60;;;;;;5035854;28;20029;-72
2021/05/26 09:36:26;;;;;;;0.30;0.30;;;22.60;55.10;;;;;;5034555;28;20030;-71
2021/05/26 09:38:56;;;;;;;1.65;1.23;;;22.60;53.30;;;;;;5035795;28;20466;-75
2021/05/26 09:41:27;;;;;;;0.70;0.40;;;22.80;55.80;;;;;;5035568;28;20090;-72
2021/05/26 09:44:14;;;;;;;0.40;0.40;;;23.00;58.90;;;;;;5033679;28;20470;-73
2021/05/26 09:46:43;;;;;;;0.93;0.43;;;23.20;58.10;;;;;;5034163;28;20263;-73
2021/05/26 09:49:11;;;;;;;0.55;0.30;;;22.90;54.80;;;;;;5034272;28;20053;-75
2021/05/26 09:51:47;;;;;;;6.50;0.65;;;23.10;55.10;;;;;;5034085;28;20057;-73
2021/05/26 09:54:17;;;;;;;1.83;0.60;;;23.20;53.80;;;;;;5035460;28;20098;-72
2021/05/26 09:56:45;;;;;;;0.30;0.30;;;23.50;58.80;;;;;;5034055;28;20049;-71
2021/05/26 09:59:11;;;;;;;2.20;0.70;;;23.70;54.20;;;;;;5034071;28;20041;-72
2021/05/26 10:01:39;;;;;;;1.02;0.52;;;23.60;55.70;;;;;;5034003;28;20037;-72
2021/05/26 10:04:06;;;;;;;0.47;0.40;;;23.50;55.60;;;;;;5034051;28;20037;-73
2021/05/26 10:06:34;;;;;;;0.32;0.30;;;;;;;;;;5033944;28;20384;-73
2021/05/26 10:09:01;;;;;;;2.83;0.35;;;24.00;54.50;;;;;;5035159;28;20362;-71
2021/05/26 10:11:29;;;;;;;0.30;0.30;;;24.10;54.90;;;;;;5035062;28;20099;-71
2021/05/26 10:13:57;;;;;;;3.15;0.63;;;24.20;53.40;;;;;;5033580;28;20029;-70
2021/05/26 10:16:23;;;;;;;1.15;0.60;;;24.50;56.10;;;;;;5034949;28;20038;-71
2021/05/26 10:18:50;;;;;;;1.65;0.50;;;24.50;54.30;;;;;;5035049;28;20033;-72
2021/05/26 10:21:20;;;;;;;0.40;0.40;;;24.50;53.70;;;;;;5034881;28;20084;-72
2021/05/26 10:23:46;;;;;;;2.20;0.52;;;24.90;52.90;;;;;;5034970;28;20532;-71
2021/05/26 10:26:12;;;;;;;2.40;0.60;;;25.20;52.60;;;;;;5034598;28;20029;-72
2021/05/26 10:28:38;;;;;;;1.42;0.68;;;25.60;51.10;;;;;;5034828;28;20472;-72
2021/05/26 10:31:06;;;;;;;0.35;0.35;;;25.90;50.30;;;;;;5034711;28;20029;-72
2021/05/26 10:33:38;;;;;;;0.40;0.40;;;;;;;;;;5034639;28;20075;-72
2021/05/26 10:36:07;;;;;;;1.50;0.30;;;;;;;;;;5033306;28;20060;-73
2021/05/26 10:38:54;;;;;;;0.30;0.30;;;26.80;47.00;;;;;;5034666;28;20029;-72
2021/05/26 10:41:20;;;;;;;0.43;0.40;;;27.20;50.20;;;;;;5034163;28;20363;-71
2021/05/26 10:43:57;;;;;;;1.02;0.47;;;27.90;43.40;;;;;;5033003;28;20033;-71
2021/05/26 10:46:37;;;;;;;0.40;0.40;;;28.20;43.70;;;;;;5034520;28;20053;-71
2021/05/26 10:49:10;;;;;;;0.30;0.30;;;28.20;43.50;;;;;;5033172;28;20386;-70
2021/05/26 10:51:51;;;;;;;0.50;0.43;;;29.00;46.50;;;;;;5034480;28;20032;-71
2021/05/26 10:54:36;;;;;;;1.30;0.52;;;;;;;;;;5032610;28;20038;-74
2021/05/26 10:57:02;;;;;;;7.03;0.57;;;;;;;;;;5034633;28;20037;-71
2021/05/26 10:59:29;;;;;;;0.50;0.50;;;;;;;;;;5034186;28;20029;-71
2021/05/26 11:02:04;;;;;;;1.73;0.50;;;;;;;;;;5034408;28;20037;-71
2021/05/26 11:04:34;;;;;;;0.77;0.57;;;;;;;;;;5031857;28;20027;-71
2021/05/26 11:07:21;;;;;;;4.07;3.78;;;;;;;;;;5032662;28;20605;-72
2021/05/26 11:09:56;;;;;;;0.65;0.65;;;;;;;;;;5033938;28;20037;-71
2021/05/26 11:12:22;;;;;;;1.38;0.50;;;;;;;;;;5032553;28;20029;-71
2021/05/26 11:14:53;;;;;;;1.35;0.40;;;;;;;;;;5033129;28;20378;-72
2021/05/26 11:17:21;;;;;;;0.60;0.60;;;;;;;;;;5035052;28;20092;-72
2021/05/26 11:19:48;;;;;;;2.13;0.45;;;;;;;;;;5034181;28;20052;-72
2021/05/26 11:22:15;;;;;;;1.10;0.50;;;;;;;;;;5033834;28;20022;-71
2021/05/26 11:24:48;;;;;;;2.17;0.45;;;;;;;;;;5033770;28;20056;-70
2021/05/26 11:27:21;;;;;;;0.68;0.68;;;;;;;;;;5033807;28;20377;-72
2021/05/26 11:29:51;;;;;;;4.32;0.88;;;;;;;;;;5033729;28;20021;-72
2021/05/26 11:32:17;;;;;;;0.52;0.43;;;;;;;;;;5032225;28;20026;-72
2021/05/26 11:34:45;;;;;;;2.20;0.40;;;;;;;;;;5033597;28;20022;-72
2021/05/26 11:37:12;;;;;;;0.40;0.40;;;;;;;;;;5033525;28;20034;-72
2021/05/26 11:39:39;;;;;;;0.40;0.40;;;;;;;;;;5032133;28;20501;-71
2021/05/26 11:42:22;;;;;;;1.42;0.47;;;;;;;;;;5031778;28;20029;-72
2021/05/26 11:45:05;;;;;;;0.45;0.40;;;;;;;;;;5033423;28;20063;-71
2021/05/26 11:47:59;;;;;;;0.82;0.55;;;;;;;;;;5033330;28;20049;-72
2021/05/26 11:50:26;;;;;;;0.55;0.35;;;;;;;;;;5028615;28;20072;-72
2021/05/26 11:52:58;;;;;;;1.45;0.47;;;;;;;;;;5033172;28;20033;-70
2021/05/26 11:55:25;;;;;;;2.05;0.60;;;;;;;;;;5031813;28;20068;-70
2021/05/26 11:57:52;;;;;;;2.17;0.40;;;;;;;;;;5033181;28;20416;-72
2021/05/26 12:00:21;;;;;;;0.55;0.40;;;;;;;;;;5032679;28;20064;-72
2021/05/26 12:03:10;;;;;;;0.80;0.30;;;;;;;;;;5031617;28;20026;-72
2021/05/26 12:05:39;;;;;;;0.47;0.40;;;;;;;;;;5032660;28;20022;-73
2021/05/26 12:08:17;;;;;;;0.90;0.40;;;;;;;;;;5033021;28;20459;-71
2021/05/26 12:10:45;;;;;;;0.45;0.40;;;;;;;;;;5033171;28;20025;-71
2021/05/26 12:13:11;;;;;;;0.40;0.40;;;;;;;;;;5032942;28;20041;-72
2021/05/26 12:15:38;;;;;;;3.15;1.63;;;;;;;;;;5032760;28;20112;-72
2021/05/26 12:18:04;;;;;;;0.85;0.40;;;;;;;;;;5033343;28;20371;-71
2021/05/26 12:20:31;;;;;;;0.38;0.38;;;;;;;;;;5032973;28;20025;-72
2021/05/26 12:22:58;;;;;;;0.55;0.55;;;;;;;;;;5020631;28;20029;-70
2021/05/26 12:25:47;;;;;;;1.63;0.20;;;;;;;;;;5013655;28;20021;-71
2021/05/26 12:28:14;;;;;;;0.20;0.20;;;;;;;;;;5031139;28;20048;-72
2021/05/26 12:30:41;;;;;;;1.30;0.52;;;;;;;;;;5032833;28;20052;-72
2021/05/26 12:33:14;;;;;;;0.30;0.30;;;;;;;;;;5032675;28;20022;-71
2021/05/26 12:35:40;;;;;;;0.30;0.30;;;;;;;;;;5032736;28;20036;-72
2021/05/26 12:38:20;;;;;;;0.57;0.40;;;;;;;;;;5032669;28;20021;-71
2021/05/26 12:40:47;;;;;;;0.32;0.30;;;;;;;;;;5032822;28;20076;-73
2021/05/26 12:43:30;;;;;;;0.40;0.40;;;;;;;;;;5032682;28;20033;-72
2021/05/26 12:45:56;;;;;;;0.73;0.28;;;;;;;;;;5017841;28;20041;-71
2021/05/26 12:48:25;;;;;;;0.50;0.50;;;;;;;;;;5031889;28;20018;-71
2021/05/26 12:50:51;;;;;;;12.43;0.90;;;40.30;29.70;;;;;;5030751;28;20351;-71
2021/05/26 12:53:17;;;;;;;0.63;0.50;;;40.40;30.60;;;;;;5031479;28;20091;-71
2021/05/26 12:55:43;;;;;;;1.55;0.68;;;40.30;30.80;;;;;;5031970;28;20033;-72
2021/05/26 12:58:16;;;;;;;0.50;0.50;;;40.80;31.20;;;;;;5031146;28;20413;-70
2021/05/26 13:00:43;;;;;;;0.32;0.32;;;40.60;31.10;;;;;;5032049;28;20026;-72
2021/05/26 13:03:12;;;;;;;0.60;0.50;;;40.80;29.70;;;;;;5031914;28;20382;-70
2021/05/26 13:05:47;;;;;;;0.47;0.35;;;41.10;29.70;;;;;;5032415;28;20049;-71
2021/05/26 13:08:14;;;;;;;0.50;0.50;;;41.20;29.40;;;;;;5032569;28;20038;-71
2021/05/26 13:10:52;;;;;;;1.13;0.60;;;41.00;29.60;;;;;;5031267;28;20040;-72